sensor_id;sensor_type;location;lat;lon;timestamp;temperature;humidity
53802;DHT22;39709;53.334;6.534;2023-02-08T00:00:24;-2.40;99.90
53802;DHT22;39709;53.334;6.534;2023-02-08T00:02:50;-2.60;99.90
53802;DHT22;39709;53.334;6.534;2023-02-08T00:05:17;-2.90;99.90
53802;DHT22;39709;53.334;6.534;2023-02-08T00:07:43;-2.80;99.90
53802;DHT22;39709;53.334;6.534;2023-02-08T00:10:09;-2.90;99.90
53802;DHT22;39709;53.334;6.534;2023-02-08T00:12:36;-2.90;99.90
53802;DHT22;39709;53.334;6.534;2023-02-08T00:15:02;-2.90;99.90
53802;DHT22;39709;53.334;6.534;2023-02-08T00:17:28;-2.50;99.90
53802;DHT22;39709;53.334;6.534;2023-02-08T00:19:54;-2.50;99.90
53802;DHT22;39709;53.334;6.534;2023-02-08T00:22:20;-2.70;99.90
53802;DHT22;39709;53.334;6.534;2023-02-08T00:24:45;-2.90;99.90
53802;DHT22;39709;53.334;6.534;2023-02-08T00:27:11;-2.50;99.90
53802;DHT22;39709;53.334;6.534;2023-02-08T00:29:37;-2.90;99.90
53802;DHT22;39709;53.334;6.534;2023-02-08T00:32:03;-2.90;99.90
53802;DHT22;39709;53.334;6.534;2023-02-08T00:34:28;-2.90;99.90
53802;DHT22;39709;53.334;6.534;2023-02-08T00:36:54;-2.90;99.90
53802;DHT22;39709;53.334;6.534;2023-02-08T00:39:20;-3.00;99.90
53802;DHT22;39709;53.334;6.534;2023-02-08T00:41:46;-3.00;99.90
53802;DHT22;39709;53.334;6.534;2023-02-08T00:44:12;-2.90;99.90
53802;DHT22;39709;53.334;6.534;2023-02-08T00:46:37;-2.90;99.90
53802;DHT22;39709;53.334;6.534;2023-02-08T00:49:03;-2.80;99.90
53802;DHT22;39709;53.334;6.534;2023-02-08T00:51:29;-2.60;99.90
53802;DHT22;39709;53.334;6.534;2023-02-08T00:53:55;-2.60;99.90
53802;DHT22;39709;53.334;6.534;2023-02-08T00:56:20;-2.60;99.90
53802;DHT22;39709;53.334;6.534;2023-02-08T00:58:46;-2.90;99.90
53802;DHT22;39709;53.334;6.534;2023-02-08T01:01:12;-2.90;99.90
53802;DHT22;39709;53.334;6.534;2023-02-08T01:03:39;-2.60;99.90
53802;DHT22;39709;53.334;6.534;2023-02-08T01:06:08;-2.80;99.90
53802;DHT22;39709;53.334;6.534;2023-02-08T01:08:35;-2.60;99.90
53802;DHT22;39709;53.334;6.534;2023-02-08T01:11:05;-2.00;99.90
53802;DHT22;39709;53.334;6.534;2023-02-08T01:13:31;-2.90;99.90
53802;DHT22;39709;53.334;6.534;2023-02-08T01:18:35;-2.70;99.90
53802;DHT22;39709;53.334;6.534;2023-02-08T01:21:09;-2.70;99.90
53802;DHT22;39709;53.334;6.534;2023-02-08T01:23:35;-2.90;99.90
53802;DHT22;39709;53.334;6.534;2023-02-08T01:26:01;-2.60;99.90
53802;DHT22;39709;53.334;6.534;2023-02-08T01:28:27;-2.70;99.90
53802;DHT22;39709;53.334;6.534;2023-02-08T01:30:53;-2.60;99.90
53802;DHT22;39709;53.334;6.534;2023-02-08T01:33:18;-2.60;99.90
53802;DHT22;39709;53.334;6.534;2023-02-08T01:35:44;-2.90;99.90
53802;DHT22;39709;53.334;6.534;2023-02-08T01:38:10;-2.90;99.90
53802;DHT22;39709;53.334;6.534;2023-02-08T01:40:35;-3.00;99.90
53802;DHT22;39709;53.334;6.534;2023-02-08T01:43:01;-2.70;99.90
53802;DHT22;39709;53.334;6.534;2023-02-08T01:45:29;-2.90;99.90
53802;DHT22;39709;53.334;6.534;2023-02-08T01:48:03;-3.00;99.90
53802;DHT22;39709;53.334;6.534;2023-02-08T01:50:33;-2.60;99.90
53802;DHT22;39709;53.334;6.534;2023-02-08T01:53:01;-2.70;99.90
53802;DHT22;39709;53.334;6.534;2023-02-08T01:55:31;-3.00;99.90
53802;DHT22;39709;53.334;6.534;2023-02-08T01:58:00;-3.10;99.90
53802;DHT22;39709;53.334;6.534;2023-02-08T02:00:28;-2.90;99.90
53802;DHT22;39709;53.334;6.534;2023-02-08T02:02:56;-2.80;99.90
53802;DHT22;39709;53.334;6.534;2023-02-08T02:05:25;-2.70;99.90
53802;DHT22;39709;53.334;6.534;2023-02-08T02:07:52;-2.80;99.90
53802;DHT22;39709;53.334;6.534;2023-02-08T02:10:30;-2.80;99.90
53802;DHT22;39709;53.334;6.534;2023-02-08T02:13:14;-3.00;99.90
53802;DHT22;39709;53.334;6.534;2023-02-08T02:15:42;-2.80;99.90
53802;DHT22;39709;53.334;6.534;2023-02-08T02:18:08;-3.10;99.90
53802;DHT22;39709;53.334;6.534;2023-02-08T02:31:50;-3.20;99.90
53802;DHT22;39709;53.334;6.534;2023-02-08T02:40:06;-2.80;99.90
53802;DHT22;39709;53.334;6.534;2023-02-08T02:45:34;-2.70;99.90
53802;DHT22;39709;53.334;6.534;2023-02-08T02:50:54;-2.80;99.90
53802;DHT22;39709;53.334;6.534;2023-02-08T02:53:28;-3.20;99.90
53802;DHT22;39709;53.334;6.534;2023-02-08T02:56:04;-3.00;99.90
53802;DHT22;39709;53.334;6.534;2023-02-08T02:58:31;-3.00;99.90
53802;DHT22;39709;53.334;6.534;2023-02-08T03:00:58;-3.30;99.90
53802;DHT22;39709;53.334;6.534;2023-02-08T03:03:27;-3.20;99.90
53802;DHT22;39709;53.334;6.534;2023-02-08T03:05:59;-3.20;99.90
53802;DHT22;39709;53.334;6.534;2023-02-08T03:11:27;-2.90;99.90
53802;DHT22;39709;53.334;6.534;2023-02-08T03:22:13;-3.00;99.90
53802;DHT22;39709;53.334;6.534;2023-02-08T03:25:06;-2.80;99.90
53802;DHT22;39709;53.334;6.534;2023-02-08T03:30:26;-3.10;99.90
53802;DHT22;39709;53.334;6.534;2023-02-08T03:35:42;-2.90;99.90
53802;DHT22;39709;53.334;6.534;2023-02-08T03:38:14;-3.40;99.90
53802;DHT22;39709;53.334;6.534;2023-02-08T03:40:45;-3.10;99.90
53802;DHT22;39709;53.334;6.534;2023-02-08T03:43:17;-3.30;99.90
53802;DHT22;39709;53.334;6.534;2023-02-08T03:45:56;-3.10;99.90
53802;DHT22;39709;53.334;6.534;2023-02-08T03:48:24;-3.30;99.90
53802;DHT22;39709;53.334;6.534;2023-02-08T03:50:52;-3.10;99.90
53802;DHT22;39709;53.334;6.534;2023-02-08T03:53:21;-3.20;99.60
53802;DHT22;39709;53.334;6.534;2023-02-08T03:55:50;-3.20;99.90
53802;DHT22;39709;53.334;6.534;2023-02-08T03:58:22;-3.50;99.70
53802;DHT22;39709;53.334;6.534;2023-02-08T04:00:55;-3.50;99.90
53802;DHT22;39709;53.334;6.534;2023-02-08T04:03:25;-3.10;99.90
53802;DHT22;39709;53.334;6.534;2023-02-08T04:05:51;-3.50;99.90
53802;DHT22;39709;53.334;6.534;2023-02-08T04:08:17;-3.10;99.90
53802;DHT22;39709;53.334;6.534;2023-02-08T04:10:44;-3.50;99.90
53802;DHT22;39709;53.334;6.534;2023-02-08T04:13:10;-3.20;99.90
53802;DHT22;39709;53.334;6.534;2023-02-08T04:15:36;-3.40;99.90
53802;DHT22;39709;53.334;6.534;2023-02-08T04:18:01;-3.40;99.90
53802;DHT22;39709;53.334;6.534;2023-02-08T04:20:27;-3.50;99.90
53802;DHT22;39709;53.334;6.534;2023-02-08T04:22:53;-3.50;99.90
53802;DHT22;39709;53.334;6.534;2023-02-08T04:25:18;-3.20;99.90
53802;DHT22;39709;53.334;6.534;2023-02-08T04:27:44;-3.20;99.90
53802;DHT22;39709;53.334;6.534;2023-02-08T04:30:11;-3.80;96.60
53802;DHT22;39709;53.334;6.534;2023-02-08T04:32:36;-3.80;94.50
53802;DHT22;39709;53.334;6.534;2023-02-08T04:35:02;-3.40;99.90
53802;DHT22;39709;53.334;6.534;2023-02-08T04:37:28;-3.50;97.90
53802;DHT22;39709;53.334;6.534;2023-02-08T04:39:53;-3.60;96.00
53802;DHT22;39709;53.334;6.534;2023-02-08T04:42:19;-3.90;99.30
53802;DHT22;39709;53.334;6.534;2023-02-08T04:44:45;-2.80;99.90
53802;DHT22;39709;53.334;6.534;2023-02-08T04:49:36;-3.40;99.90
53802;DHT22;39709;53.334;6.534;2023-02-08T04:52:02;-3.50;99.90
53802;DHT22;39709;53.334;6.534;2023-02-08T04:54:28;-3.70;99.90
53802;DHT22;39709;53.334;6.534;2023-02-08T04:56:54;-3.70;99.90
53802;DHT22;39709;53.334;6.534;2023-02-08T04:59:20;-3.90;99.90
53802;DHT22;39709;53.334;6.534;2023-02-08T05:01:46;-3.70;99.90
53802;DHT22;39709;53.334;6.534;2023-02-08T05:04:12;-4.00;99.90
53802;DHT22;39709;53.334;6.534;2023-02-08T05:06:37;-3.70;99.90
53802;DHT22;39709;53.334;6.534;2023-02-08T05:09:06;-3.60;99.90
53802;DHT22;39709;53.334;6.534;2023-02-08T05:11:33;-3.90;99.90
53802;DHT22;39709;53.334;6.534;2023-02-08T05:13:58;-3.90;99.90
53802;DHT22;39709;53.334;6.534;2023-02-08T05:16:24;-3.60;99.90
53802;DHT22;39709;53.334;6.534;2023-02-08T05:18:50;-3.60;99.90
53802;DHT22;39709;53.334;6.534;2023-02-08T05:21:15;-3.90;99.90
53802;DHT22;39709;53.334;6.534;2023-02-08T05:23:41;-3.80;99.90
53802;DHT22;39709;53.334;6.534;2023-02-08T05:26:09;-3.90;99.90
53802;DHT22;39709;53.334;6.534;2023-02-08T05:28:36;-3.60;99.90
53802;DHT22;39709;53.334;6.534;2023-02-08T05:31:11;-3.90;99.90
53802;DHT22;39709;53.334;6.534;2023-02-08T05:33:38;-3.60;99.90
53802;DHT22;39709;53.334;6.534;2023-02-08T05:36:03;-3.90;99.90
53802;DHT22;39709;53.334;6.534;2023-02-08T05:38:29;-4.00;99.90
53802;DHT22;39709;53.334;6.534;2023-02-08T05:40:55;-4.00;99.90
53802;DHT22;39709;53.334;6.534;2023-02-08T05:43:20;-3.90;99.90
53802;DHT22;39709;53.334;6.534;2023-02-08T05:45:48;-3.80;99.90
53802;DHT22;39709;53.334;6.534;2023-02-08T05:48:13;-4.00;99.90
53802;DHT22;39709;53.334;6.534;2023-02-08T05:50:39;-4.10;99.90
53802;DHT22;39709;53.334;6.534;2023-02-08T05:53:05;-3.70;99.90
53802;DHT22;39709;53.334;6.534;2023-02-08T05:55:30;-4.00;99.90
53802;DHT22;39709;53.334;6.534;2023-02-08T05:57:56;-3.80;99.90
53802;DHT22;39709;53.334;6.534;2023-02-08T06:00:22;-3.70;99.90
53802;DHT22;39709;53.334;6.534;2023-02-08T06:02:47;-3.60;99.90
53802;DHT22;39709;53.334;6.534;2023-02-08T06:05:13;-3.70;99.90
53802;DHT22;39709;53.334;6.534;2023-02-08T06:07:39;-3.80;99.90
53802;DHT22;39709;53.334;6.534;2023-02-08T06:10:05;-3.70;99.90
53802;DHT22;39709;53.334;6.534;2023-02-08T06:12:31;-3.80;99.90
53802;DHT22;39709;53.334;6.534;2023-02-08T06:14:56;-3.90;99.90
53802;DHT22;39709;53.334;6.534;2023-02-08T06:17:22;-3.90;99.90
53802;DHT22;39709;53.334;6.534;2023-02-08T06:19:48;-4.10;99.90
53802;DHT22;39709;53.334;6.534;2023-02-08T06:22:13;-4.00;99.90
53802;DHT22;39709;53.334;6.534;2023-02-08T06:24:39;-3.70;99.90
53802;DHT22;39709;53.334;6.534;2023-02-08T06:27:05;-3.80;99.90
53802;DHT22;39709;53.334;6.534;2023-02-08T06:29:30;-3.90;99.90
53802;DHT22;39709;53.334;6.534;2023-02-08T06:31:56;-3.70;99.90
53802;DHT22;39709;53.334;6.534;2023-02-08T06:34:22;-3.80;99.90
53802;DHT22;39709;53.334;6.534;2023-02-08T06:36:48;-4.10;99.90
53802;DHT22;39709;53.334;6.534;2023-02-08T06:39:13;-3.80;99.90
53802;DHT22;39709;53.334;6.534;2023-02-08T06:41:39;-4.00;99.90
53802;DHT22;39709;53.334;6.534;2023-02-08T06:44:05;-3.70;99.90
53802;DHT22;39709;53.334;6.534;2023-02-08T06:46:30;-4.00;99.90
53802;DHT22;39709;53.334;6.534;2023-02-08T06:48:56;-4.00;99.90
53802;DHT22;39709;53.334;6.534;2023-02-08T06:51:23;-3.70;99.90
53802;DHT22;39709;53.334;6.534;2023-02-08T06:53:49;-3.70;99.90
53802;DHT22;39709;53.334;6.534;2023-02-08T06:56:15;-4.10;99.90
53802;DHT22;39709;53.334;6.534;2023-02-08T06:58:40;-4.00;99.90
53802;DHT22;39709;53.334;6.534;2023-02-08T07:01:10;-4.00;99.90
53802;DHT22;39709;53.334;6.534;2023-02-08T07:03:36;-4.00;99.90
53802;DHT22;39709;53.334;6.534;2023-02-08T07:06:03;-3.70;99.90
53802;DHT22;39709;53.334;6.534;2023-02-08T07:08:28;-4.10;99.90
53802;DHT22;39709;53.334;6.534;2023-02-08T07:10:54;-3.80;99.90
53802;DHT22;39709;53.334;6.534;2023-02-08T07:13:20;-3.60;99.90
53802;DHT22;39709;53.334;6.534;2023-02-08T07:15:45;-4.00;99.90
53802;DHT22;39709;53.334;6.534;2023-02-08T07:18:11;-3.70;99.90
53802;DHT22;39709;53.334;6.534;2023-02-08T07:20:37;-3.50;99.90
53802;DHT22;39709;53.334;6.534;2023-02-08T07:23:02;-3.50;99.90
53802;DHT22;39709;53.334;6.534;2023-02-08T07:25:28;-3.80;99.90
53802;DHT22;39709;53.334;6.534;2023-02-08T07:27:54;-3.80;99.90
53802;DHT22;39709;53.334;6.534;2023-02-08T07:30:19;-3.40;99.90
53802;DHT22;39709;53.334;6.534;2023-02-08T07:32:45;-3.40;99.90
53802;DHT22;39709;53.334;6.534;2023-02-08T07:35:11;-3.50;99.90
53802;DHT22;39709;53.334;6.534;2023-02-08T07:37:36;-3.80;99.90
53802;DHT22;39709;53.334;6.534;2023-02-08T07:40:02;-3.80;99.90
53802;DHT22;39709;53.334;6.534;2023-02-08T07:42:28;-3.70;99.90
53802;DHT22;39709;53.334;6.534;2023-02-08T07:44:53;-3.30;99.90
53802;DHT22;39709;53.334;6.534;2023-02-08T07:47:19;-3.40;99.90
53802;DHT22;39709;53.334;6.534;2023-02-08T07:49:45;-3.70;99.90
53802;DHT22;39709;53.334;6.534;2023-02-08T07:52:10;-3.60;99.90
53802;DHT22;39709;53.334;6.534;2023-02-08T07:54:36;-3.60;99.90
53802;DHT22;39709;53.334;6.534;2023-02-08T07:57:01;-3.50;99.90
53802;DHT22;39709;53.334;6.534;2023-02-08T07:59:27;-3.50;99.90
53802;DHT22;39709;53.334;6.534;2023-02-08T08:01:53;-3.50;99.90
53802;DHT22;39709;53.334;6.534;2023-02-08T08:04:19;-3.30;99.90
53802;DHT22;39709;53.334;6.534;2023-02-08T08:06:46;-3.00;99.90
53802;DHT22;39709;53.334;6.534;2023-02-08T08:09:12;-3.00;99.90
53802;DHT22;39709;53.334;6.534;2023-02-08T08:11:39;-3.10;99.90
53802;DHT22;39709;53.334;6.534;2023-02-08T08:14:05;-3.20;99.90
53802;DHT22;39709;53.334;6.534;2023-02-08T08:16:31;-3.20;99.90
53802;DHT22;39709;53.334;6.534;2023-02-08T08:18:56;-2.70;99.90
53802;DHT22;39709;53.334;6.534;2023-02-08T08:21:22;-2.70;99.90
53802;DHT22;39709;53.334;6.534;2023-02-08T08:23:48;-3.00;99.90
53802;DHT22;39709;53.334;6.534;2023-02-08T08:26:17;-3.00;99.90
53802;DHT22;39709;53.334;6.534;2023-02-08T08:28:43;-2.90;99.90
53802;DHT22;39709;53.334;6.534;2023-02-08T08:31:19;-2.90;99.90
53802;DHT22;39709;53.334;6.534;2023-02-08T08:33:45;-2.90;99.90
53802;DHT22;39709;53.334;6.534;2023-02-08T08:36:11;-2.90;99.90
53802;DHT22;39709;53.334;6.534;2023-02-08T08:38:37;-2.80;99.90
53802;DHT22;39709;53.334;6.534;2023-02-08T08:41:13;-2.70;99.90
53802;DHT22;39709;53.334;6.534;2023-02-08T08:43:42;-2.50;99.90
53802;DHT22;39709;53.334;6.534;2023-02-08T08:46:08;-2.30;99.90
53802;DHT22;39709;53.334;6.534;2023-02-08T08:48:35;-2.10;99.90
53802;DHT22;39709;53.334;6.534;2023-02-08T08:51:02;-2.20;99.90
53802;DHT22;39709;53.334;6.534;2023-02-08T08:53:28;-1.90;99.90
53802;DHT22;39709;53.334;6.534;2023-02-08T08:55:54;-1.90;99.90
53802;DHT22;39709;53.334;6.534;2023-02-08T08:58:20;-1.80;99.90
53802;DHT22;39709;53.334;6.534;2023-02-08T09:00:45;-1.90;99.90
53802;DHT22;39709;53.334;6.534;2023-02-08T09:03:11;-1.70;99.90
53802;DHT22;39709;53.334;6.534;2023-02-08T09:05:37;-1.70;99.90
53802;DHT22;39709;53.334;6.534;2023-02-08T09:08:03;-1.90;99.90
53802;DHT22;39709;53.334;6.534;2023-02-08T09:10:29;-1.50;99.90
53802;DHT22;39709;53.334;6.534;2023-02-08T09:12:56;-1.30;99.90
53802;DHT22;39709;53.334;6.534;2023-02-08T09:15:21;-1.70;99.90
53802;DHT22;39709;53.334;6.534;2023-02-08T09:17:47;-1.70;99.90
53802;DHT22;39709;53.334;6.534;2023-02-08T09:20:12;-1.50;99.90
53802;DHT22;39709;53.334;6.534;2023-02-08T09:22:38;-1.30;99.90
53802;DHT22;39709;53.334;6.534;2023-02-08T09:25:04;-1.40;99.90
53802;DHT22;39709;53.334;6.534;2023-02-08T09:27:32;-1.50;99.90
53802;DHT22;39709;53.334;6.534;2023-02-08T09:29:57;-1.40;96.90
53802;DHT22;39709;53.334;6.534;2023-02-08T09:32:23;-1.30;96.80
53802;DHT22;39709;53.334;6.534;2023-02-08T09:34:49;-1.20;95.00
53802;DHT22;39709;53.334;6.534;2023-02-08T09:37:14;-0.90;95.10
53802;DHT22;39709;53.334;6.534;2023-02-08T09:39:42;-1.30;91.30
53802;DHT22;39709;53.334;6.534;2023-02-08T09:42:39;-1.10;92.40
53802;DHT22;39709;53.334;6.534;2023-02-08T09:45:29;-1.10;86.60
53802;DHT22;39709;53.334;6.534;2023-02-08T09:48:06;-0.80;70.70
53802;DHT22;39709;53.334;6.534;2023-02-08T09:54:03;-0.80;62.10
53802;DHT22;39709;53.334;6.534;2023-02-08T09:56:34;-0.70;58.40
53802;DHT22;39709;53.334;6.534;2023-02-08T09:59:02;-0.70;61.90
53802;DHT22;39709;53.334;6.534;2023-02-08T10:01:31;-0.80;69.90
53802;DHT22;39709;53.334;6.534;2023-02-08T10:04:27;-0.80;53.10
53802;DHT22;39709;53.334;6.534;2023-02-08T10:06:55;-0.40;50.80
53802;DHT22;39709;53.334;6.534;2023-02-08T10:09:24;-0.20;61.40
53802;DHT22;39709;53.334;6.534;2023-02-08T10:12:05;-0.20;46.70
53802;DHT22;39709;53.334;6.534;2023-02-08T10:15:01;-0.50;24.80
53802;DHT22;39709;53.334;6.534;2023-02-08T10:20:27;-0.10;13.00
53802;DHT22;39709;53.334;6.534;2023-02-08T10:23:06;-0.20;13.10
53802;DHT22;39709;53.334;6.534;2023-02-08T10:31:37;0.00;1.00
53802;DHT22;39709;53.334;6.534;2023-02-08T10:34:29;0.50;1.00
53802;DHT22;39709;53.334;6.534;2023-02-08T10:36:58;0.30;1.00
53802;DHT22;39709;53.334;6.534;2023-02-08T10:39:29;0.50;1.00
53802;DHT22;39709;53.334;6.534;2023-02-08T10:41:55;0.70;1.00
53802;DHT22;39709;53.334;6.534;2023-02-08T10:44:35;0.60;1.00
53802;DHT22;39709;53.334;6.534;2023-02-08T10:47:31;0.70;1.00
53802;DHT22;39709;53.334;6.534;2023-02-08T10:52:55;1.00;1.00
53802;DHT22;39709;53.334;6.534;2023-02-08T10:55:21;1.10;1.00
53802;DHT22;39709;53.334;6.534;2023-02-08T10:57:49;1.40;1.00
53802;DHT22;39709;53.334;6.534;2023-02-08T11:00:21;1.30;1.00
53802;DHT22;39709;53.334;6.534;2023-02-08T11:02:50;1.40;1.00
53802;DHT22;39709;53.334;6.534;2023-02-08T11:05:34;1.50;99.90
53802;DHT22;39709;53.334;6.534;2023-02-08T11:08:08;1.60;99.90
53802;DHT22;39709;53.334;6.534;2023-02-08T11:10:36;1.80;99.90
53802;DHT22;39709;53.334;6.534;2023-02-08T11:13:18;1.70;99.90
53802;DHT22;39709;53.334;6.534;2023-02-08T11:18:30;1.90;99.90
53802;DHT22;39709;53.334;6.534;2023-02-08T11:21:05;2.00;99.90
53802;DHT22;39709;53.334;6.534;2023-02-08T11:23:35;1.90;99.90
53802;DHT22;39709;53.334;6.534;2023-02-08T11:26:20;2.10;99.90
53802;DHT22;39709;53.334;6.534;2023-02-08T11:28:59;2.10;99.90
53802;DHT22;39709;53.334;6.534;2023-02-08T11:31:26;2.20;99.90
53802;DHT22;39709;53.334;6.534;2023-02-08T11:34:06;2.30;99.90
53802;DHT22;39709;53.334;6.534;2023-02-08T11:36:34;2.30;99.90
53802;DHT22;39709;53.334;6.534;2023-02-08T11:41:46;2.60;99.90
53802;DHT22;39709;53.334;6.534;2023-02-08T11:44:21;2.50;99.90
53802;DHT22;39709;53.334;6.534;2023-02-08T11:46:49;2.60;99.90
53802;DHT22;39709;53.334;6.534;2023-02-08T11:49:27;2.60;99.90
53802;DHT22;39709;53.334;6.534;2023-02-08T11:51:54;2.70;99.90
53802;DHT22;39709;53.334;6.534;2023-02-08T11:54:38;2.60;99.90
53802;DHT22;39709;53.334;6.534;2023-02-08T11:57:18;2.80;99.90
53802;DHT22;39709;53.334;6.534;2023-02-08T11:59:49;2.90;99.90
53802;DHT22;39709;53.334;6.534;2023-02-08T12:02:36;2.70;99.90
53802;DHT22;39709;53.334;6.534;2023-02-08T12:05:03;2.70;99.90
53802;DHT22;39709;53.334;6.534;2023-02-08T12:10:43;2.80;99.90
53802;DHT22;39709;53.334;6.534;2023-02-08T12:16:01;2.90;99.90
53802;DHT22;39709;53.334;6.534;2023-02-08T12:18:38;3.00;1.00
53802;DHT22;39709;53.334;6.534;2023-02-08T12:21:11;2.90;99.90
53802;DHT22;39709;53.334;6.534;2023-02-08T12:23:54;3.10;99.90
53802;DHT22;39709;53.334;6.534;2023-02-08T12:32:11;3.10;99.90
53802;DHT22;39709;53.334;6.534;2023-02-08T12:37:51;3.20;99.90
53802;DHT22;39709;53.334;6.534;2023-02-08T12:49:04;3.40;99.90
53802;DHT22;39709;53.334;6.534;2023-02-08T12:54:42;3.50;99.90
53802;DHT22;39709;53.334;6.534;2023-02-08T12:57:13;3.50;99.90
53802;DHT22;39709;53.334;6.534;2023-02-08T12:59:48;3.50;99.90
53802;DHT22;39709;53.334;6.534;2023-02-08T13:02:25;3.40;99.90
53802;DHT22;39709;53.334;6.534;2023-02-08T13:04:56;3.50;99.90
53802;DHT22;39709;53.334;6.534;2023-02-08T13:07:34;3.60;99.90
53802;DHT22;39709;53.334;6.534;2023-02-08T13:13:24;3.50;99.90
53802;DHT22;39709;53.334;6.534;2023-02-08T13:15:58;3.60;99.90
53802;DHT22;39709;53.334;6.534;2023-02-08T13:18:39;3.70;99.90
53802;DHT22;39709;53.334;6.534;2023-02-08T13:21:28;3.70;99.90
53802;DHT22;39709;53.334;6.534;2023-02-08T13:23:56;3.70;99.90
53802;DHT22;39709;53.334;6.534;2023-02-08T13:26:28;3.80;99.90
53802;DHT22;39709;53.334;6.534;2023-02-08T13:28:58;3.70;99.90
53802;DHT22;39709;53.334;6.534;2023-02-08T13:33:58;3.70;99.90
53802;DHT22;39709;53.334;6.534;2023-02-08T13:36:29;3.70;99.90
53802;DHT22;39709;53.334;6.534;2023-02-08T13:38:58;3.70;99.90
53802;DHT22;39709;53.334;6.534;2023-02-08T13:41:26;3.90;99.90
53802;DHT22;39709;53.334;6.534;2023-02-08T13:43:56;3.80;99.90
53802;DHT22;39709;53.334;6.534;2023-02-08T13:46:25;3.80;99.90
53802;DHT22;39709;53.334;6.534;2023-02-08T13:48:54;3.80;99.90
53802;DHT22;39709;53.334;6.534;2023-02-08T13:56:41;4.00;99.90
53802;DHT22;39709;53.334;6.534;2023-02-08T14:04:42;4.20;99.90
53802;DHT22;39709;53.334;6.534;2023-02-08T14:10:34;4.00;99.90
53802;DHT22;39709;53.334;6.534;2023-02-08T14:13:21;4.10;99.90
53802;DHT22;39709;53.334;6.534;2023-02-08T14:18:57;4.00;99.90
53802;DHT22;39709;53.334;6.534;2023-02-08T14:21:36;4.00;99.90
53802;DHT22;39709;53.334;6.534;2023-02-08T14:24:08;4.10;99.90
53802;DHT22;39709;53.334;6.534;2023-02-08T14:26:44;4.10;99.90
53802;DHT22;39709;53.334;6.534;2023-02-08T14:29:23;4.10;99.90
53802;DHT22;39709;53.334;6.534;2023-02-08T14:31:50;4.10;99.90
53802;DHT22;39709;53.334;6.534;2023-02-08T14:34:30;4.10;99.90
53802;DHT22;39709;53.334;6.534;2023-02-08T14:39:36;4.10;99.90
53802;DHT22;39709;53.334;6.534;2023-02-08T14:42:02;4.20;99.90
53802;DHT22;39709;53.334;6.534;2023-02-08T14:52:32;4.20;99.90
53802;DHT22;39709;53.334;6.534;2023-02-08T14:55:09;4.10;99.90
53802;DHT22;39709;53.334;6.534;2023-02-08T14:57:39;4.20;99.90
53802;DHT22;39709;53.334;6.534;2023-02-08T15:00:20;4.20;99.90
53802;DHT22;39709;53.334;6.534;2023-02-08T15:02:46;4.20;99.90
53802;DHT22;39709;53.334;6.534;2023-02-08T15:05:22;4.20;99.90
53802;DHT22;39709;53.334;6.534;2023-02-08T15:07:52;4.20;99.90
53802;DHT22;39709;53.334;6.534;2023-02-08T15:10:20;4.10;99.90
53802;DHT22;39709;53.334;6.534;2023-02-08T15:12:50;4.10;99.90
53802;DHT22;39709;53.334;6.534;2023-02-08T15:15:43;4.10;99.90
53802;DHT22;39709;53.334;6.534;2023-02-08T15:18:19;4.10;99.90
53802;DHT22;39709;53.334;6.534;2023-02-08T15:20:59;4.00;99.90
53802;DHT22;39709;53.334;6.534;2023-02-08T15:23:25;3.90;99.90
53802;DHT22;39709;53.334;6.534;2023-02-08T15:26:16;4.00;99.90
53802;DHT22;39709;53.334;6.534;2023-02-08T15:28:43;3.90;99.90
53802;DHT22;39709;53.334;6.534;2023-02-08T15:31:14;3.80;99.90
53802;DHT22;39709;53.334;6.534;2023-02-08T15:33:41;3.80;99.90
53802;DHT22;39709;53.334;6.534;2023-02-08T15:36:31;3.70;99.90
53802;DHT22;39709;53.334;6.534;2023-02-08T15:39:00;3.60;99.90
53802;DHT22;39709;53.334;6.534;2023-02-08T15:41:32;3.70;99.90
53802;DHT22;39709;53.334;6.534;2023-02-08T15:44:19;3.50;99.90
53802;DHT22;39709;53.334;6.534;2023-02-08T15:46:46;3.40;99.90
53802;DHT22;39709;53.334;6.534;2023-02-08T15:49:25;3.30;99.90
53802;DHT22;39709;53.334;6.534;2023-02-08T15:51:54;3.10;99.90
53802;DHT22;39709;53.334;6.534;2023-02-08T15:54:22;3.10;99.90
53802;DHT22;39709;53.334;6.534;2023-02-08T15:57:15;3.10;99.90
53802;DHT22;39709;53.334;6.534;2023-02-08T15:59:44;2.90;99.90
53802;DHT22;39709;53.334;6.534;2023-02-08T16:02:29;3.00;99.90
53802;DHT22;39709;53.334;6.534;2023-02-08T16:04:56;2.70;99.90
53802;DHT22;39709;53.334;6.534;2023-02-08T16:07:31;2.60;99.90
53802;DHT22;39709;53.334;6.534;2023-02-08T16:09:58;2.50;99.90
53802;DHT22;39709;53.334;6.534;2023-02-08T16:12:26;2.50;99.90
53802;DHT22;39709;53.334;6.534;2023-02-08T16:14:53;2.40;99.90
53802;DHT22;39709;53.334;6.534;2023-02-08T16:17:36;2.40;99.90
53802;DHT22;39709;53.334;6.534;2023-02-08T16:20:24;2.30;99.90
53802;DHT22;39709;53.334;6.534;2023-02-08T16:22:55;2.20;99.90
53802;DHT22;39709;53.334;6.534;2023-02-08T16:25:42;2.20;99.90
53802;DHT22;39709;53.334;6.534;2023-02-08T16:28:25;2.10;99.90
53802;DHT22;39709;53.334;6.534;2023-02-08T16:30:54;2.10;99.90
53802;DHT22;39709;53.334;6.534;2023-02-08T16:33:20;1.80;99.90
53802;DHT22;39709;53.334;6.534;2023-02-08T16:35:46;1.70;99.90
53802;DHT22;39709;53.334;6.534;2023-02-08T16:38:20;1.60;99.90
53802;DHT22;39709;53.334;6.534;2023-02-08T16:40:54;1.50;99.90
53802;DHT22;39709;53.334;6.534;2023-02-08T16:43:27;1.40;99.90
53802;DHT22;39709;53.334;6.534;2023-02-08T16:48:47;1.30;99.90
53802;DHT22;39709;53.334;6.534;2023-02-08T16:51:19;1.20;99.90
53802;DHT22;39709;53.334;6.534;2023-02-08T16:53:53;1.10;99.90
53802;DHT22;39709;53.334;6.534;2023-02-08T16:56:19;1.00;99.90
53802;DHT22;39709;53.334;6.534;2023-02-08T16:58:45;0.90;99.90
53802;DHT22;39709;53.334;6.534;2023-02-08T17:01:12;0.80;99.90
53802;DHT22;39709;53.334;6.534;2023-02-08T17:03:38;0.70;99.90
53802;DHT22;39709;53.334;6.534;2023-02-08T17:06:04;0.50;99.90
53802;DHT22;39709;53.334;6.534;2023-02-08T17:08:30;0.60;99.90
53802;DHT22;39709;53.334;6.534;2023-02-08T17:10:57;0.50;99.90
53802;DHT22;39709;53.334;6.534;2023-02-08T17:13:23;0.10;99.90
53802;DHT22;39709;53.334;6.534;2023-02-08T17:15:52;0.50;99.90
53802;DHT22;39709;53.334;6.534;2023-02-08T17:18:18;0.40;99.90
53802;DHT22;39709;53.334;6.534;2023-02-08T17:20:45;0.50;99.90
53802;DHT22;39709;53.334;6.534;2023-02-08T17:23:12;0.50;99.90
53802;DHT22;39709;53.334;6.534;2023-02-08T17:25:39;0.40;99.90
53802;DHT22;39709;53.334;6.534;2023-02-08T17:28:08;0.70;99.90
53802;DHT22;39709;53.334;6.534;2023-02-08T17:30:40;0.40;99.90
53802;DHT22;39709;53.334;6.534;2023-02-08T17:33:07;0.20;99.90
53802;DHT22;39709;53.334;6.534;2023-02-08T17:35:34;0.40;99.90
53802;DHT22;39709;53.334;6.534;2023-02-08T17:38:02;0.30;99.90
53802;DHT22;39709;53.334;6.534;2023-02-08T17:40:30;0.30;99.90
53802;DHT22;39709;53.334;6.534;2023-02-08T17:42:58;0.70;99.90
53802;DHT22;39709;53.334;6.534;2023-02-08T17:45:24;0.30;99.90
53802;DHT22;39709;53.334;6.534;2023-02-08T17:47:50;0.80;99.90
53802;DHT22;39709;53.334;6.534;2023-02-08T17:50:16;0.90;99.90
53802;DHT22;39709;53.334;6.534;2023-02-08T17:52:43;0.30;99.90
53802;DHT22;39709;53.334;6.534;2023-02-08T17:55:11;0.70;99.90
53802;DHT22;39709;53.334;6.534;2023-02-08T17:57:39;0.70;99.90
53802;DHT22;39709;53.334;6.534;2023-02-08T18:00:07;0.20;99.90